createdAt,value
2022-09-02T00:00:26.419Z,13.73
2022-09-02T00:01:26.428Z,13.69
2022-09-02T00:02:26.620Z,13.71
2022-09-02T00:03:27.007Z,13.64
2022-09-02T00:04:26.564Z,13.70
2022-09-02T00:05:26.516Z,13.67
2022-09-02T00:06:26.505Z,13.69
2022-09-02T00:07:26.525Z,13.66
2022-09-02T00:08:26.539Z,13.69
2022-09-02T00:09:26.554Z,13.66
2022-09-02T00:10:26.571Z,13.60
2022-09-02T00:11:26.589Z,13.67
2022-09-02T00:12:26.607Z,13.67
2022-09-02T00:13:26.619Z,13.64
2022-09-02T00:14:26.735Z,13.64
2022-09-02T00:15:26.653Z,13.62
2022-09-02T00:16:26.713Z,13.63
2022-09-02T00:17:26.678Z,13.62
2022-09-02T00:18:26.699Z,13.64
2022-09-02T00:19:26.711Z,13.57
2022-09-02T00:20:26.732Z,13.55
2022-09-02T00:21:26.738Z,13.57
2022-09-02T00:22:26.756Z,13.59
2022-09-02T00:23:27.429Z,13.52
2022-09-02T00:24:26.791Z,13.48
2022-09-02T00:25:26.802Z,13.49
2022-09-02T00:26:26.820Z,13.48
2022-09-02T00:27:26.833Z,13.51
2022-09-02T00:28:26.851Z,13.57
2022-09-02T00:29:26.886Z,13.55
2022-09-02T00:30:26.885Z,13.59
2022-09-02T00:31:26.954Z,13.66
2022-09-02T00:32:26.914Z,13.48
2022-09-02T00:33:26.927Z,13.59
2022-09-02T00:34:27.047Z,13.48
2022-09-02T00:35:26.968Z,13.42
2022-09-02T00:36:26.977Z,13.44
2022-09-02T00:37:26.991Z,13.46
2022-09-02T00:38:27.005Z,13.48
2022-09-02T00:39:27.020Z,13.49
2022-09-02T00:40:27.075Z,13.48
2022-09-02T00:41:27.052Z,13.54
2022-09-02T00:42:27.068Z,13.54
2022-09-02T00:43:27.089Z,13.52
2022-09-02T00:44:27.096Z,13.49
2022-09-02T00:45:27.209Z,13.42
2022-09-02T00:46:27.127Z,13.39
2022-09-02T00:47:27.144Z,13.45
2022-09-02T00:48:27.160Z,13.41
2022-09-02T00:49:27.168Z,13.36
2022-09-02T00:50:27.188Z,13.38
2022-09-02T00:51:27.204Z,13.32
2022-09-02T00:52:27.220Z,13.28
2022-09-02T00:53:27.237Z,13.29
2022-09-02T00:54:27.253Z,13.28
2022-09-02T00:55:27.262Z,13.20
2022-09-02T00:56:27.278Z,13.19
2022-09-02T00:57:27.293Z,13.14
2022-09-02T00:58:27.313Z,13.12
2022-09-02T00:59:27.324Z,13.28
2022-09-02T01:00:27.343Z,13.25
2022-09-02T01:01:27.515Z,13.11
2022-09-02T01:02:27.440Z,13.28
2022-09-02T01:03:27.385Z,13.25
2022-09-02T01:04:27.401Z,13.23
2022-09-02T01:05:27.412Z,13.22
2022-09-02T01:06:27.428Z,13.22
2022-09-02T01:07:27.446Z,13.12
2022-09-02T01:08:27.462Z,13.20
2022-09-02T01:09:27.472Z,13.22
2022-09-02T01:10:27.490Z,13.17
2022-09-02T01:11:27.503Z,13.12
2022-09-02T01:12:27.524Z,13.10
2022-09-02T01:13:27.533Z,13.15
2022-09-02T01:14:28.619Z,13.05
2022-09-02T01:15:27.568Z,13.15
2022-09-02T01:16:27.652Z,13.07
2022-09-02T01:17:27.593Z,13.07
2022-09-02T01:18:27.616Z,13.10
2022-09-02T01:19:27.625Z,13.11
2022-09-02T01:20:27.643Z,13.14
2022-09-02T01:21:27.653Z,13.12
2022-09-02T01:22:27.672Z,13.11
2022-09-02T01:23:27.683Z,13.11
2022-09-02T01:24:27.702Z,13.23
2022-09-02T01:25:27.720Z,13.25
2022-09-02T01:26:27.732Z,13.12
2022-09-02T01:27:27.743Z,13.12
2022-09-02T01:28:27.767Z,13.10
2022-09-02T01:29:27.777Z,13.14
2022-09-02T01:30:27.789Z,13.10
2022-09-02T01:31:27.921Z,13.07
2022-09-02T01:32:27.819Z,13.15
2022-09-02T01:33:27.861Z,13.04
2022-09-02T01:34:27.851Z,13.07
2022-09-02T01:35:27.867Z,13.00
2022-09-02T01:36:27.980Z,13.08
2022-09-02T01:37:27.892Z,12.96
2022-09-02T01:38:27.915Z,13.01
2022-09-02T01:39:27.924Z,13.01
2022-09-02T01:40:28.015Z,13.01
2022-09-02T01:41:27.954Z,13.08
2022-09-02T01:42:27.970Z,12.93
2022-09-02T01:43:27.987Z,13.01
2022-09-02T01:44:28.001Z,13.05
2022-09-02T01:45:28.015Z,13.07
2022-09-02T01:46:28.075Z,13.04
2022-09-02T01:47:28.047Z,12.93
2022-09-02T01:48:28.058Z,13.04
2022-09-02T01:49:28.073Z,12.96
2022-09-02T01:50:28.087Z,12.90
2022-09-02T01:51:28.102Z,13.01
2022-09-02T01:52:28.121Z,13.03
2022-09-02T01:53:28.134Z,13.03
2022-09-02T01:54:28.148Z,13.04
2022-09-02T01:55:28.172Z,12.93
2022-09-02T01:56:28.177Z,13.08
2022-09-02T01:57:28.197Z,13.00
2022-09-02T01:58:28.211Z,12.90
2022-09-02T01:59:28.224Z,12.97
2022-09-02T02:00:28.268Z,12.92
2022-09-02T02:01:28.251Z,12.90
2022-09-02T02:02:28.293Z,12.90
2022-09-02T02:03:28.284Z,12.96
2022-09-02T02:04:28.297Z,12.90
2022-09-02T02:05:28.312Z,12.92
2022-09-02T02:06:28.326Z,12.87
2022-09-02T02:07:28.344Z,12.92
2022-09-02T02:08:28.357Z,12.92
2022-09-02T02:09:28.373Z,12.90
2022-09-02T02:10:28.385Z,12.79
2022-09-02T02:11:28.405Z,12.85
2022-09-02T02:12:28.417Z,12.89
2022-09-02T02:13:28.430Z,12.82
2022-09-02T02:14:28.452Z,12.82
2022-09-02T02:16:28.551Z,12.82
2022-09-02T02:17:28.489Z,12.82
2022-09-02T02:18:28.505Z,12.79
2022-09-02T02:19:28.517Z,12.77
2022-09-02T02:20:28.533Z,12.82
2022-09-02T02:21:28.649Z,12.78
2022-09-02T02:22:28.562Z,12.89
2022-09-02T02:23:28.581Z,12.85
2022-09-02T02:24:28.593Z,12.85
2022-09-02T02:25:28.610Z,12.82
2022-09-02T02:26:28.621Z,12.79
2022-09-02T02:27:28.637Z,12.74
2022-09-02T02:28:28.663Z,12.79
2022-09-02T02:29:28.680Z,12.71
2022-09-02T02:30:28.681Z,12.79
2022-09-02T02:31:28.739Z,12.74
2022-09-02T02:32:28.710Z,12.82
2022-09-02T02:33:31.909Z,12.74
2022-09-02T02:34:28.735Z,12.77
2022-09-02T02:35:28.757Z,12.68
2022-09-02T02:36:28.768Z,12.60
2022-09-02T02:37:28.782Z,12.52
2022-09-02T02:38:28.799Z,12.64
2022-09-02T02:39:28.812Z,12.59
2022-09-02T02:40:28.943Z,12.60
2022-09-02T02:41:28.840Z,12.59
2022-09-02T02:42:28.859Z,12.53
2022-09-02T02:43:28.873Z,12.54
2022-09-02T02:44:28.888Z,12.52
2022-09-02T02:45:28.902Z,12.64
2022-09-02T02:46:28.979Z,12.57
2022-09-02T02:47:28.931Z,12.54
2022-09-02T02:48:28.944Z,12.59
2022-09-02T02:49:28.956Z,12.52
2022-09-02T02:50:28.975Z,12.56
2022-09-02T02:51:28.988Z,12.50
2022-09-02T02:52:29.006Z,12.53
2022-09-02T02:53:29.016Z,12.53
2022-09-02T02:54:29.032Z,12.53
2022-09-02T02:55:29.049Z,12.53
2022-09-02T02:56:29.065Z,12.54
2022-09-02T02:57:29.075Z,12.56
2022-09-02T02:58:29.092Z,12.50
2022-09-02T02:59:29.109Z,12.57
2022-09-02T03:00:29.118Z,12.52
2022-09-02T03:01:29.235Z,12.56
2022-09-02T03:02:29.313Z,12.54
2022-09-02T03:03:29.161Z,12.54
2022-09-02T03:04:29.177Z,12.46
2022-09-02T03:05:29.188Z,12.56
2022-09-02T03:06:29.213Z,12.52
2022-09-02T03:07:29.221Z,12.60
2022-09-02T03:08:29.237Z,12.54
2022-09-02T03:09:29.248Z,12.56
2022-09-02T03:10:29.265Z,12.56
2022-09-02T03:11:29.279Z,12.60
2022-09-02T03:12:29.294Z,12.57
2022-09-02T03:13:29.611Z,12.52
2022-09-02T03:14:29.326Z,12.49
2022-09-02T03:15:29.339Z,12.59
2022-09-02T03:16:29.479Z,12.59
2022-09-02T03:17:29.366Z,12.53
2022-09-02T03:18:29.379Z,12.57
2022-09-02T03:19:29.393Z,12.54
2022-09-02T03:20:29.409Z,12.47
2022-09-02T03:21:29.420Z,12.49
2022-09-02T03:22:29.439Z,12.42
2022-09-02T03:23:29.454Z,12.50
2022-09-02T03:24:29.470Z,12.47
2022-09-02T03:25:33.472Z,12.42
2022-09-02T03:26:29.496Z,12.42
2022-09-02T03:27:29.511Z,12.37
2022-09-02T03:28:29.520Z,12.39
2022-09-02T03:29:29.537Z,12.37
2022-09-02T03:30:29.554Z,12.38
2022-09-02T03:31:29.740Z,12.29
2022-09-02T03:32:30.670Z,12.28
2022-09-02T03:33:29.597Z,12.29
2022-09-02T03:34:29.610Z,12.39
2022-09-02T03:35:29.628Z,12.41
2022-09-02T03:36:29.641Z,12.38
2022-09-02T03:37:29.659Z,12.31
2022-09-02T03:38:29.670Z,12.37
2022-09-02T03:39:29.686Z,12.42
2022-09-02T03:40:29.776Z,12.47
2022-09-02T03:41:29.711Z,12.38
2022-09-02T03:42:29.726Z,12.42
2022-09-02T03:43:29.744Z,12.39
2022-09-02T03:44:29.855Z,12.45
2022-09-02T03:45:29.899Z,12.38
2022-09-02T03:46:29.784Z,12.34
2022-09-02T03:47:29.801Z,12.32
2022-09-02T03:48:29.810Z,12.34
2022-09-02T03:49:29.825Z,12.34
2022-09-02T03:50:29.841Z,12.32
2022-09-02T03:51:29.853Z,12.35
2022-09-02T03:52:29.870Z,12.38
2022-09-02T03:53:29.887Z,12.41
2022-09-02T03:54:29.895Z,12.38
2022-09-02T03:55:29.912Z,12.39
2022-09-02T03:56:29.927Z,12.34
2022-09-02T03:57:29.941Z,12.37
2022-09-02T03:58:29.956Z,12.41
2022-09-02T03:59:29.970Z,12.34
2022-09-02T04:00:30.000Z,12.34
2022-09-02T04:01:33.669Z,12.38
2022-09-02T04:02:30.177Z,12.31
2022-09-02T04:03:30.030Z,12.35
2022-09-02T04:04:30.039Z,12.35
2022-09-02T04:05:30.059Z,12.29
2022-09-02T04:06:32.886Z,12.38
2022-09-02T04:07:30.086Z,12.31
2022-09-02T04:08:30.102Z,12.28
2022-09-02T04:09:30.116Z,12.28
2022-09-02T04:10:30.123Z,12.28
2022-09-02T04:11:30.144Z,12.29
2022-09-02T04:12:32.491Z,12.28
2022-09-02T04:13:30.167Z,12.21
2022-09-02T04:14:30.183Z,12.27
2022-09-02T04:15:30.198Z,12.24
2022-09-02T04:16:30.246Z,12.24
2022-09-02T04:17:30.244Z,12.31
2022-09-02T04:18:30.245Z,12.17
2022-09-02T04:19:30.252Z,12.27
2022-09-02T04:20:30.272Z,12.19
2022-09-02T04:21:30.286Z,12.28
2022-09-02T04:22:30.302Z,12.19
2022-09-02T04:23:30.310Z,12.16
2022-09-02T04:24:30.327Z,12.13
2022-09-02T04:25:30.337Z,12.12
2022-09-02T04:26:30.353Z,12.20
2022-09-02T04:27:30.368Z,12.16
2022-09-02T04:28:30.383Z,12.16
2022-09-02T04:29:30.397Z,12.27
2022-09-02T04:30:30.411Z,12.16
2022-09-02T04:31:30.542Z,12.23
2022-09-02T04:32:30.444Z,12.20
2022-09-02T04:33:30.456Z,12.32
2022-09-02T04:34:30.471Z,12.27
2022-09-02T04:35:30.485Z,12.31
2022-09-02T04:36:30.928Z,12.27
2022-09-02T04:37:30.516Z,12.27
2022-09-02T04:38:30.523Z,12.34
2022-09-02T04:39:30.537Z,12.34
2022-09-02T04:40:30.618Z,12.29
2022-09-02T04:41:30.573Z,12.37
2022-09-02T04:42:30.580Z,12.34
2022-09-02T04:43:30.600Z,12.29
2022-09-02T04:44:30.612Z,12.31
2022-09-02T04:45:30.629Z,12.24
2022-09-02T04:46:34.992Z,12.32
2022-09-02T04:47:30.657Z,12.24
2022-09-02T04:48:30.669Z,12.28
2022-09-02T04:49:30.779Z,12.28
2022-09-02T04:50:30.692Z,12.31
2022-09-02T04:51:30.712Z,12.27
2022-09-02T04:52:30.725Z,12.27
2022-09-02T04:53:30.734Z,12.29
2022-09-02T04:54:30.752Z,12.32
2022-09-02T04:55:30.768Z,12.31
2022-09-02T04:56:30.781Z,12.31
2022-09-02T04:57:30.795Z,12.37
2022-09-02T04:58:30.808Z,12.32
2022-09-02T04:59:30.820Z,12.34
2022-09-02T05:00:30.839Z,12.28
2022-09-02T05:01:30.892Z,12.37
2022-09-02T05:02:30.914Z,12.32
2022-09-02T05:03:30.882Z,12.39
2022-09-02T05:04:30.893Z,12.34
2022-09-02T05:05:30.909Z,12.34
2022-09-02T05:06:30.923Z,12.29
2022-09-02T05:07:31.157Z,12.32
2022-09-02T05:08:30.949Z,12.42
2022-09-02T05:09:30.965Z,12.39
2022-09-02T05:10:30.980Z,12.42
2022-09-02T05:11:30.999Z,12.42
2022-09-02T05:12:31.011Z,12.38
2022-09-02T05:13:31.026Z,12.32
2022-09-02T05:14:31.042Z,12.42
2022-09-02T05:15:31.108Z,12.45
2022-09-02T05:16:31.062Z,12.39
2022-09-02T05:17:31.078Z,12.46
2022-09-02T05:18:31.098Z,12.41
2022-09-02T05:19:31.146Z,12.38
2022-09-02T05:20:31.134Z,12.34
2022-09-02T05:21:31.136Z,12.41
2022-09-02T05:22:31.151Z,12.38
2022-09-02T05:23:31.170Z,12.29
2022-09-02T05:24:31.181Z,12.37
2022-09-02T05:25:31.195Z,12.38
2022-09-02T05:26:31.210Z,12.39
2022-09-02T05:27:31.220Z,12.39
2022-09-02T05:28:31.238Z,12.34
2022-09-02T05:29:31.256Z,12.41
2022-09-02T05:30:31.262Z,12.41
2022-09-02T05:31:31.344Z,12.39
2022-09-02T05:32:34.425Z,12.34
2022-09-02T05:33:31.309Z,12.42
2022-09-02T05:34:31.324Z,12.41
2022-09-02T05:35:31.333Z,12.42
2022-09-02T05:36:31.354Z,12.37
2022-09-02T05:37:31.362Z,12.38
2022-09-02T05:38:31.381Z,12.47
2022-09-02T05:39:31.396Z,12.41
2022-09-02T05:40:31.453Z,12.37
2022-09-02T05:41:31.424Z,12.42
2022-09-02T05:42:31.440Z,12.37
2022-09-02T05:43:31.466Z,12.41
2022-09-02T05:44:31.465Z,12.38
2022-09-02T05:45:31.502Z,12.41
2022-09-02T05:46:31.572Z,12.41
2022-09-02T05:47:31.508Z,12.37
2022-09-02T05:48:31.530Z,12.49
2022-09-02T05:49:31.534Z,12.49
2022-09-02T05:50:31.934Z,12.50
2022-09-02T05:51:31.566Z,12.49
2022-09-02T05:52:31.579Z,12.54
2022-09-02T05:53:31.594Z,12.54
2022-09-02T05:54:31.711Z,12.57
2022-09-02T05:55:31.626Z,12.53
2022-09-02T05:56:31.639Z,12.60
2022-09-02T05:57:31.652Z,12.50
2022-09-02T05:58:31.668Z,12.56
2022-09-02T05:59:31.677Z,12.57
2022-09-02T06:00:31.693Z,12.56
2022-09-02T06:01:31.756Z,12.50
2022-09-02T06:02:31.823Z,12.52
2022-09-02T06:03:31.735Z,12.53
2022-09-02T06:04:31.748Z,12.53
2022-09-02T06:05:31.766Z,12.57
2022-09-02T06:06:31.777Z,12.59
2022-09-02T06:07:31.797Z,12.56
2022-09-02T06:08:31.812Z,12.54
2022-09-02T06:09:31.825Z,12.59
2022-09-02T06:10:31.832Z,12.56
2022-09-02T06:11:31.855Z,12.62
2022-09-02T06:12:31.862Z,12.64
2022-09-02T06:13:31.881Z,12.65
2022-09-02T06:14:31.896Z,12.56
2022-09-02T06:15:32.012Z,12.59
2022-09-02T06:16:31.935Z,12.65
2022-09-02T06:17:31.944Z,12.60
2022-09-02T06:18:31.951Z,12.65
2022-09-02T06:19:31.967Z,12.60
2022-09-02T06:20:31.979Z,12.71
2022-09-02T06:21:32.004Z,12.75
2022-09-02T06:22:32.009Z,12.82
2022-09-02T06:23:32.026Z,12.79
2022-09-02T06:24:32.040Z,12.93
2022-09-02T06:25:32.055Z,12.96
2022-09-02T06:26:32.070Z,13.00
2022-09-02T06:27:32.082Z,12.92
2022-09-02T06:28:32.095Z,12.96
2022-09-02T06:29:32.114Z,13.08
2022-09-02T06:30:32.127Z,12.93
2022-09-02T06:31:34.857Z,13.05
2022-09-02T06:32:32.154Z,13.08
2022-09-02T06:33:32.167Z,13.12
2022-09-02T06:34:32.281Z,13.11
2022-09-02T06:35:32.200Z,13.11
2022-09-02T06:36:32.214Z,13.26
2022-09-02T06:37:32.224Z,13.19
2022-09-02T06:38:32.242Z,13.29
2022-09-02T06:39:32.288Z,13.39
2022-09-02T06:40:32.338Z,13.39
2022-09-02T06:41:32.286Z,13.45
2022-09-02T06:42:32.299Z,13.46
2022-09-02T06:43:42.293Z,13.49
2022-09-02T06:44:32.585Z,13.46
2022-09-02T06:45:32.347Z,13.49
2022-09-02T06:46:32.413Z,13.57
2022-09-02T06:47:32.376Z,13.54
2022-09-02T06:48:32.388Z,13.54
2022-09-02T06:49:32.399Z,13.62
2022-09-02T06:50:32.415Z,13.62
2022-09-02T06:51:32.434Z,13.66
2022-09-02T06:52:32.447Z,13.82
2022-09-02T06:53:32.459Z,13.82
2022-09-02T06:54:32.478Z,13.85
2022-09-02T06:55:32.486Z,13.99
2022-09-02T06:56:32.505Z,13.96
2022-09-02T06:57:34.087Z,14.02
2022-09-02T06:58:32.535Z,14.04
2022-09-02T06:59:32.548Z,14.17
2022-09-02T07:00:32.561Z,14.14
2022-09-02T07:01:32.765Z,14.25
2022-09-02T07:02:32.592Z,14.27
2022-09-02T07:03:32.602Z,14.35
2022-09-02T07:04:32.618Z,14.50
2022-09-02T07:05:32.635Z,14.40
2022-09-02T07:06:32.653Z,14.42
2022-09-02T07:07:32.667Z,14.43
2022-09-02T07:08:32.677Z,14.36
2022-09-02T07:09:32.693Z,14.33
2022-09-02T07:10:32.715Z,14.28
2022-09-02T07:11:32.723Z,14.28
2022-09-02T07:12:32.736Z,14.39
2022-09-02T07:13:32.751Z,14.47
2022-09-02T07:14:32.767Z,14.62
2022-09-02T07:15:32.780Z,14.62
2022-09-02T07:16:32.838Z,14.55
2022-09-02T07:17:32.811Z,14.45
2022-09-02T07:18:32.828Z,14.45
2022-09-02T07:19:32.843Z,14.47
2022-09-02T07:20:32.860Z,14.35
2022-09-02T07:21:32.873Z,14.39
2022-09-02T07:22:32.886Z,14.36
2022-09-02T07:23:32.901Z,14.40
2022-09-02T07:24:32.915Z,14.52
2022-09-02T07:25:32.938Z,14.58
2022-09-02T07:26:32.949Z,14.68
2022-09-02T07:27:32.961Z,14.73
2022-09-02T07:28:32.976Z,14.86
2022-09-02T07:29:32.987Z,14.84
2022-09-02T07:30:33.040Z,14.89
2022-09-02T07:31:33.019Z,14.83
2022-09-02T07:32:33.034Z,14.95
2022-09-02T07:33:33.051Z,14.99
2022-09-02T07:34:33.065Z,15.02
2022-09-02T07:35:33.084Z,14.96
2022-09-02T07:36:33.102Z,14.98
2022-09-02T07:37:33.114Z,14.91
2022-09-02T07:38:33.120Z,14.91
2022-09-02T07:39:33.141Z,14.80
2022-09-02T07:40:33.233Z,14.84
2022-09-02T07:41:33.170Z,14.88
2022-09-02T07:42:33.184Z,15.02
2022-09-02T07:43:33.199Z,15.02
2022-09-02T07:44:33.332Z,15.03
2022-09-02T07:45:33.417Z,15.19
2022-09-02T07:46:33.244Z,15.29
2022-09-02T07:47:33.260Z,15.17
2022-09-02T07:48:33.277Z,15.32
2022-09-02T07:50:15.884Z,15.41
2022-09-02T07:50:33.304Z,15.41
2022-09-02T07:51:33.324Z,15.50
2022-09-02T07:52:33.337Z,15.49
2022-09-02T07:53:33.353Z,15.49
2022-09-02T07:54:33.365Z,15.35
2022-09-02T07:55:33.380Z,15.31
2022-09-02T07:56:33.391Z,15.51
2022-09-02T07:57:33.412Z,15.64
2022-09-02T07:58:33.422Z,15.68
2022-09-02T07:59:33.442Z,15.72
2022-09-02T08:00:33.459Z,15.49
2022-09-02T08:01:33.607Z,15.31
2022-09-02T08:02:33.549Z,15.35
2022-09-02T08:03:33.513Z,15.51
2022-09-02T08:04:33.517Z,15.68
2022-09-02T08:05:33.535Z,15.71
2022-09-02T08:06:34.530Z,15.75
2022-09-02T08:07:33.564Z,15.75
2022-09-02T08:08:33.578Z,15.65
2022-09-02T08:09:33.595Z,15.74
2022-09-02T08:10:33.609Z,15.74
2022-09-02T08:11:33.622Z,15.67
2022-09-02T08:12:33.642Z,15.80
2022-09-02T08:13:33.657Z,15.75
2022-09-02T08:14:33.670Z,15.84
2022-09-02T08:15:33.688Z,15.92
2022-09-02T08:16:33.757Z,16.00
2022-09-02T08:17:33.716Z,16.02
2022-09-02T08:18:33.733Z,16.09
2022-09-02T08:19:33.747Z,16.17
2022-09-02T08:20:33.760Z,16.05
2022-09-02T08:21:33.778Z,16.07
2022-09-02T08:23:37.091Z,16.35
2022-09-02T08:24:33.829Z,16.49
2022-09-02T08:25:33.842Z,16.50
2022-09-02T08:26:33.856Z,16.57
2022-09-02T08:27:33.875Z,16.82
2022-09-02T08:28:33.892Z,16.97
2022-09-02T08:29:33.905Z,16.68
2022-09-02T08:30:33.919Z,16.57
2022-09-02T08:31:33.994Z,16.81
2022-09-02T08:32:33.949Z,16.88
2022-09-02T08:33:33.967Z,17.00
2022-09-02T08:34:34.084Z,17.12
2022-09-02T08:35:33.999Z,17.22
2022-09-02T08:36:34.023Z,17.21
2022-09-02T08:37:34.031Z,17.07
2022-09-02T08:38:34.049Z,17.22
2022-09-02T08:39:34.065Z,17.15
2022-09-02T08:40:34.164Z,17.08
2022-09-02T08:41:34.115Z,17.21
2022-09-02T08:42:34.116Z,17.30
2022-09-02T08:43:34.149Z,17.18
2022-09-02T08:44:34.153Z,17.12
2022-09-02T08:45:34.234Z,17.04
2022-09-02T08:46:34.181Z,17.03
2022-09-02T08:47:34.196Z,17.14
2022-09-02T08:48:34.216Z,17.11
2022-09-02T08:49:34.226Z,17.06
2022-09-02T08:50:34.244Z,17.06
2022-09-02T08:51:37.675Z,16.98
2022-09-02T08:52:34.279Z,16.96
2022-09-02T08:53:34.289Z,17.00
2022-09-02T08:54:34.310Z,17.03
2022-09-02T08:55:34.326Z,17.07
2022-09-02T08:56:34.346Z,17.04
2022-09-02T08:57:34.361Z,17.14
2022-09-02T08:58:34.377Z,17.22
2022-09-02T08:59:34.442Z,17.51
2022-09-02T09:00:34.423Z,17.78
2022-09-02T09:01:34.462Z,17.81
2022-09-02T09:02:34.520Z,17.95
2022-09-02T09:03:34.459Z,18.10
2022-09-02T09:04:34.478Z,17.99
2022-09-02T09:05:34.492Z,18.07
2022-09-02T09:06:34.512Z,17.99
2022-09-02T09:08:34.549Z,18.23
2022-09-02T09:09:34.560Z,18.47
2022-09-02T09:10:34.581Z,18.70
2022-09-02T09:11:34.595Z,18.66
2022-09-02T09:12:34.611Z,18.82
2022-09-02T09:13:37.252Z,18.67
2022-09-02T09:14:34.647Z,18.69
2022-09-02T09:15:34.662Z,18.36
2022-09-02T09:16:34.746Z,18.48
2022-09-02T09:17:34.698Z,18.52
2022-09-02T09:18:34.712Z,18.15
2022-09-02T09:19:34.734Z,17.99
2022-09-02T09:20:34.746Z,18.02
2022-09-02T09:21:34.770Z,17.99
2022-09-02T09:22:34.786Z,17.90
2022-09-02T09:23:34.960Z,17.77
2022-09-02T09:24:34.815Z,17.77
2022-09-02T09:25:34.835Z,17.59
2022-09-02T09:26:34.852Z,17.56
2022-09-02T09:27:34.868Z,17.34
2022-09-02T09:28:34.885Z,17.15
2022-09-02T09:29:34.906Z,17.06
2022-09-02T09:30:34.927Z,17.00
2022-09-02T09:31:34.985Z,17.21
2022-09-02T09:32:34.959Z,17.56
2022-09-02T09:33:34.976Z,17.96
2022-09-02T09:34:34.990Z,18.20
2022-09-02T09:35:35.005Z,18.36
2022-09-02T09:36:35.021Z,18.51
2022-09-02T09:37:36.339Z,18.66
2022-09-02T09:38:35.056Z,18.72
2022-09-02T09:39:35.077Z,18.87
2022-09-02T09:40:35.141Z,18.95
2022-09-02T09:41:35.109Z,19.23
2022-09-02T09:42:35.127Z,19.16
2022-09-02T09:43:35.146Z,19.43
2022-09-02T09:44:35.161Z,19.48
2022-09-02T09:45:35.291Z,19.66
2022-09-02T09:46:35.200Z,19.86
2022-09-02T09:47:35.219Z,19.87
2022-09-02T09:48:35.234Z,19.71
2022-09-02T09:49:35.250Z,19.68
2022-09-02T09:50:35.269Z,19.83
2022-09-02T09:51:49.776Z,20.03
2022-09-02T09:52:35.303Z,20.24
2022-09-02T09:53:35.325Z,20.58
2022-09-02T09:54:35.341Z,20.28
2022-09-02T09:55:39.783Z,20.21
2022-09-02T09:56:37.300Z,20.24
2022-09-02T09:57:35.815Z,20.11
2022-09-02T09:58:35.411Z,20.02
2022-09-02T09:59:35.443Z,20.03
2022-09-02T10:00:35.508Z,19.46
2022-09-02T10:01:35.469Z,19.63
2022-09-02T10:02:36.527Z,19.78
2022-09-02T10:03:35.506Z,19.19
2022-09-02T10:04:43.887Z,19.50
2022-09-02T10:05:35.541Z,19.59
2022-09-02T10:06:35.562Z,20.11
2022-09-02T10:07:35.585Z,20.61
2022-09-02T10:08:35.599Z,21.03
2022-09-02T10:09:35.616Z,21.28
2022-09-02T10:10:35.635Z,21.17
2022-09-02T10:11:35.655Z,21.07
2022-09-02T10:12:35.679Z,21.59
2022-09-02T10:13:35.693Z,21.90
2022-09-02T10:14:35.711Z,22.35
2022-09-02T10:15:35.729Z,22.17
2022-09-02T10:16:35.855Z,21.38
2022-09-02T10:17:35.768Z,21.67
2022-09-02T10:18:35.786Z,21.92
2022-09-02T10:19:35.803Z,22.25
2022-09-02T10:20:37.149Z,22.12
2022-09-02T10:21:35.842Z,22.20
2022-09-02T10:22:39.441Z,22.30
2022-09-02T10:23:35.882Z,22.09
2022-09-02T10:24:35.904Z,22.09
2022-09-02T10:25:35.920Z,22.24
2022-09-02T10:26:35.942Z,22.10
2022-09-02T10:27:35.962Z,22.22
2022-09-02T10:28:35.978Z,21.82
2022-09-02T10:29:35.999Z,21.64
2022-09-02T10:30:36.017Z,21.91
2022-09-02T10:31:36.081Z,22.05
2022-09-02T10:32:36.059Z,22.02
2022-09-02T10:33:36.076Z,21.91
2022-09-02T10:34:36.093Z,22.14
2022-09-02T10:35:36.121Z,22.12
2022-09-02T10:36:36.133Z,22.35
2022-09-02T10:37:36.258Z,22.45
2022-09-02T10:38:36.172Z,21.98
2022-09-02T10:39:36.194Z,21.94
2022-09-02T10:40:36.295Z,21.91
2022-09-02T10:41:36.295Z,21.88
2022-09-02T10:42:36.253Z,21.90
2022-09-02T10:43:36.274Z,21.88
2022-09-02T10:44:36.296Z,22.17
2022-09-02T10:45:36.314Z,22.14
2022-09-02T10:46:36.362Z,21.75
2022-09-02T10:47:36.355Z,21.54
2022-09-02T10:48:36.376Z,21.07
2022-09-02T10:49:36.410Z,21.53
2022-09-02T10:50:36.416Z,21.50
2022-09-02T10:51:36.438Z,21.68
2022-09-02T10:52:36.463Z,22.02
2022-09-02T10:53:36.477Z,22.25
2022-09-02T10:54:36.497Z,22.45
2022-09-02T10:55:36.518Z,22.35
2022-09-02T10:56:36.539Z,22.65
2022-09-02T10:57:36.556Z,21.47
2022-09-02T10:58:36.582Z,21.35
2022-09-02T10:59:36.600Z,21.31
2022-09-02T11:00:36.661Z,21.34
2022-09-02T11:01:36.887Z,21.54
2022-09-02T11:02:36.661Z,21.80
2022-09-02T11:03:36.697Z,22.15
2022-09-02T11:04:36.711Z,22.36
2022-09-02T11:05:36.722Z,22.14
2022-09-02T11:06:58.790Z,22.12
2022-09-02T11:07:36.763Z,21.34
2022-09-02T11:08:36.785Z,21.27
2022-09-02T11:09:36.807Z,21.67
2022-09-02T11:10:36.822Z,21.68
2022-09-02T11:11:36.842Z,21.42
2022-09-02T11:12:36.872Z,21.58
2022-09-02T11:13:36.880Z,21.96
2022-09-02T11:14:36.916Z,21.74
2022-09-02T11:15:36.927Z,21.75
2022-09-02T11:17:36.989Z,21.74
2022-09-02T11:18:36.992Z,21.37
2022-09-02T11:19:37.023Z,21.13
2022-09-02T11:20:37.029Z,21.29
2022-09-02T11:21:37.049Z,21.10
2022-09-02T11:22:37.067Z,21.25
2022-09-02T11:23:37.088Z,21.31
2022-09-02T11:24:37.114Z,21.40
2022-09-02T11:25:37.126Z,21.28
2022-09-02T11:26:37.148Z,21.67
2022-09-02T11:27:42.540Z,21.62
2022-09-02T11:28:37.196Z,21.91
2022-09-02T11:29:37.212Z,21.37
2022-09-02T11:30:37.311Z,21.09
2022-09-02T11:31:39.181Z,20.52
2022-09-02T11:32:37.268Z,20.73
2022-09-02T11:33:37.292Z,20.76
2022-09-02T11:34:37.309Z,20.97
2022-09-02T11:35:37.326Z,21.43
2022-09-02T11:36:37.350Z,21.91
2022-09-02T11:37:37.367Z,21.77
2022-09-02T11:38:37.391Z,21.64
2022-09-02T11:39:53.961Z,21.68
2022-09-02T11:40:38.933Z,21.53
2022-09-02T11:41:38.014Z,21.37
2022-09-02T11:42:37.476Z,21.58
2022-09-02T11:43:37.494Z,21.65
2022-09-02T11:44:37.510Z,21.64
2022-09-02T11:45:37.659Z,21.84
2022-09-02T11:46:37.698Z,21.67
2022-09-02T11:47:37.786Z,21.47
2022-09-02T11:48:37.591Z,21.71
2022-09-02T11:49:37.612Z,21.62
2022-09-02T11:50:39.497Z,21.19
2022-09-02T11:51:37.655Z,21.21
2022-09-02T11:52:37.672Z,21.21
2022-09-02T11:53:37.689Z,21.58
2022-09-02T11:54:37.719Z,21.44
2022-09-02T11:55:37.728Z,21.52
2022-09-02T11:56:37.748Z,21.75
2022-09-02T11:57:37.770Z,21.58
2022-09-02T11:58:37.793Z,21.52
2022-09-02T11:59:37.829Z,21.24
2022-09-02T12:00:37.830Z,21.43
2022-09-02T12:01:43.897Z,21.25
2022-09-02T12:02:37.872Z,21.42
2022-09-02T12:03:52.074Z,21.14
2022-09-02T12:04:59.268Z,21.46
2022-09-02T12:05:38.217Z,21.37
2022-09-02T12:06:38.220Z,21.59
2022-09-02T12:07:37.975Z,21.52
2022-09-02T12:08:37.993Z,21.40
2022-09-02T12:09:38.039Z,20.99
2022-09-02T12:10:38.037Z,21.13
2022-09-02T12:11:38.054Z,21.21
2022-09-02T12:12:38.077Z,21.22
2022-09-02T12:13:38.217Z,21.53
2022-09-02T12:14:38.235Z,21.58
2022-09-02T12:15:38.133Z,21.64
2022-09-02T12:16:38.158Z,21.53
2022-09-02T12:17:38.225Z,21.44
2022-09-02T12:18:38.195Z,21.04
2022-09-02T12:19:38.216Z,20.98
2022-09-02T12:20:38.235Z,21.19
2022-09-02T12:21:38.259Z,21.37
2022-09-02T12:22:38.273Z,21.25
2022-09-02T12:23:38.303Z,21.31
2022-09-02T12:24:38.417Z,21.53
2022-09-02T12:25:38.347Z,21.47
2022-09-02T12:26:38.361Z,21.54
2022-09-02T12:27:38.384Z,21.52
2022-09-02T12:28:38.400Z,21.62
2022-09-02T12:29:39.811Z,21.65
2022-09-02T12:30:38.439Z,21.31
2022-09-02T12:31:38.583Z,21.38
2022-09-02T12:32:38.481Z,21.61
2022-09-02T12:33:38.502Z,21.69
2022-09-02T12:34:38.523Z,21.31
2022-09-02T12:35:38.636Z,21.34
2022-09-02T12:36:38.565Z,21.42
2022-09-02T12:37:38.583Z,21.28
2022-09-02T12:38:38.605Z,21.16
2022-09-02T12:39:38.625Z,21.38
2022-09-02T12:40:38.749Z,21.54
2022-09-02T12:41:38.667Z,21.32
2022-09-02T12:42:38.688Z,21.61
2022-09-02T12:43:38.706Z,21.25
2022-09-02T12:44:38.733Z,21.12
2022-09-02T12:45:38.753Z,21.09
2022-09-02T12:46:38.828Z,20.94
2022-09-02T12:47:38.804Z,20.69
2022-09-02T12:48:38.814Z,20.16
2022-09-02T12:49:38.833Z,20.17
2022-09-02T12:50:38.852Z,20.10
2022-09-02T12:51:38.872Z,19.84
2022-09-02T12:52:38.897Z,19.68
2022-09-02T12:53:38.913Z,19.86
2022-09-02T12:54:38.933Z,20.01
2022-09-02T12:55:38.956Z,19.94
2022-09-02T12:56:38.975Z,19.92